Time;durP1;ratioP1;P1;durP2;ratioP2;P2;SDS_P1;SDS_P2;PMS_P1;PMS_P2;Temp;Humidity;BMP_temperature;BMP_pressure;BME280_temperature;BME280_humidity;BME280_pressure;Samples;Min_cycle;Max_cycle;Signal;HPM_P1;HPM_P2
2023/09/26 00:00:18;;;;;;;6.47;4.43;;;17.10;99.90;;;;;;5075482;28;20211;-69
2023/09/26 00:03:08;;;;;;;8.30;4.38;;;17.00;99.90;;;;;;5079768;28;20224;-70
2023/09/26 00:05:58;;;;;;;5.53;3.97;;;17.00;99.90;;;;;;5075508;28;20334;-69
2023/09/26 00:08:47;;;;;;;9.95;4.38;;;16.90;99.90;;;;;;5070914;28;20598;-70
2023/09/26 00:11:38;;;;;;;6.13;4.25;;;16.90;99.90;;;;;;5083255;28;20610;-68
2023/09/26 00:14:27;;;;;;;6.90;4.35;;;17.00;99.90;;;;;;5090986;28;20231;-69
2023/09/26 00:17:17;;;;;;;8.60;4.38;;;16.90;99.90;;;;;;5081887;28;20224;-71
2023/09/26 00:20:26;;;;;;;10.85;4.47;;;16.90;99.90;;;;;;5078335;28;20692;-70
2023/09/26 00:23:16;;;;;;;6.72;4.50;;;16.90;99.90;;;;;;5071158;28;20564;-70
2023/09/26 00:26:07;;;;;;;5.20;4.43;;;16.90;99.90;;;;;;5077609;28;20389;-69
2023/09/26 00:29:00;;;;;;;5.20;4.13;;;16.90;99.90;;;;;;5098912;28;20231;-69
2023/09/26 00:31:51;;;;;;;6.38;4.40;;;16.90;99.90;;;;;;5080949;27;20234;-70
2023/09/26 00:34:40;;;;;;;6.13;4.32;;;16.80;99.90;;;;;;5077452;28;20865;-69
2023/09/26 00:37:29;;;;;;;7.68;4.20;;;16.90;99.90;;;;;;5081342;28;20718;-68
2023/09/26 00:40:21;;;;;;;7.82;5.40;;;16.80;99.90;;;;;;5078913;28;20902;-69
2023/09/26 00:43:11;;;;;;;6.05;4.20;;;16.90;99.90;;;;;;5080052;28;20234;-69
2023/09/26 00:46:01;;;;;;;6.38;4.63;;;16.70;99.90;;;;;;5106355;27;20268;-69
2023/09/26 00:48:50;;;;;;;7.95;3.88;;;16.70;99.90;;;;;;5082624;28;20239;-69
2023/09/26 00:51:40;;;;;;;8.10;4.72;;;16.70;99.90;;;;;;5106033;27;20212;-70
2023/09/26 00:54:30;;;;;;;5.95;4.53;;;16.70;99.90;;;;;;5084682;28;20349;-70
2023/09/26 00:57:21;;;;;;;7.00;4.28;;;16.70;99.90;;;;;;5105309;27;20219;-69
2023/09/26 01:00:14;;;;;;;5.45;4.18;;;16.70;99.90;;;;;;5080433;28;20223;-68
2023/09/26 01:03:05;;;;;;;4.38;3.85;;;16.70;99.90;;;;;;5081038;28;20220;-71
2023/09/26 01:05:54;;;;;;;4.53;3.88;;;16.70;99.90;;;;;;5082766;28;20223;-70
2023/09/26 01:08:44;;;;;;;5.85;4.25;;;16.70;99.90;;;;;;5091555;28;20242;-69
2023/09/26 01:11:33;;;;;;;8.57;4.25;;;16.60;99.90;;;;;;5083497;28;20776;-70
2023/09/26 01:14:24;;;;;;;5.28;4.00;;;16.70;99.90;;;;;;5080466;28;20230;-70
2023/09/26 01:17:13;;;;;;;6.72;3.92;;;16.60;99.90;;;;;;5078415;28;20620;-68
2023/09/26 01:20:03;;;;;;;7.55;4.40;;;16.60;99.90;;;;;;5076648;28;20228;-67
2023/09/26 01:22:54;;;;;;;5.57;4.03;;;16.70;99.90;;;;;;5083301;28;20219;-67
2023/09/26 01:25:45;;;;;;;6.07;4.25;;;16.60;99.90;;;;;;5093310;28;20296;-71
2023/09/26 01:28:35;;;;;;;6.55;4.35;;;16.60;99.90;;;;;;5109676;28;20366;-69
2023/09/26 01:31:25;;;;;;;6.78;4.35;;;16.60;99.90;;;;;;5083962;28;20234;-64
2023/09/26 01:34:14;;;;;;;5.85;4.18;;;16.60;99.90;;;;;;5076587;28;20905;-68
2023/09/26 01:37:03;;;;;;;4.88;4.05;;;16.50;99.90;;;;;;5083255;28;20260;-72
2023/09/26 01:39:52;;;;;;;6.75;4.30;;;16.60;99.90;;;;;;5083125;28;20308;-67
2023/09/26 01:42:43;;;;;;;7.13;4.15;;;16.60;99.90;;;;;;5086485;28;21022;-71
2023/09/26 01:45:32;;;;;;;5.32;4.05;;;16.60;99.90;;;;;;5082991;28;20238;-69
2023/09/26 01:48:21;;;;;;;6.95;4.40;;;16.60;99.90;;;;;;5081787;28;20216;-66
2023/09/26 01:51:10;;;;;;;5.55;4.20;;;16.60;99.90;;;;;;5084252;28;20246;-68
2023/09/26 01:53:59;;;;;;;5.82;4.40;;;16.50;99.90;;;;;;5080249;28;20368;-68
2023/09/26 01:56:51;;;;;;;7.57;4.75;;;16.50;99.90;;;;;;5108923;27;20300;-68
2023/09/26 01:59:41;;;;;;;7.78;4.50;;;16.50;99.90;;;;;;5101046;27;20217;-71
2023/09/26 02:02:30;;;;;;;4.80;4.28;;;16.40;99.90;;;;;;5081379;28;20239;-70
2023/09/26 02:05:21;;;;;;;5.78;4.20;;;16.40;99.90;;;;;;5086374;28;20234;-69
2023/09/26 02:08:11;;;;;;;4.82;4.00;;;16.40;99.90;;;;;;5077049;28;20226;-69
2023/09/26 02:11:00;;;;;;;7.28;4.15;;;16.50;99.90;;;;;;5080793;28;20227;-70
2023/09/26 02:13:49;;;;;;;7.00;4.53;;;16.40;99.90;;;;;;5081978;28;20249;-70
2023/09/26 02:16:40;;;;;;;8.35;4.60;;;16.40;99.90;;;;;;5085682;28;20239;-68
2023/09/26 02:19:30;;;;;;;6.20;4.03;;;16.30;99.90;;;;;;5084345;28;20231;-69
2023/09/26 02:22:20;;;;;;;6.18;4.40;;;16.30;99.90;;;;;;5082893;28;20235;-69
2023/09/26 02:25:10;;;;;;;5.60;4.45;;;16.30;99.90;;;;;;5080508;28;20231;-71
2023/09/26 02:27:59;;;;;;;4.43;4.00;;;16.30;99.90;;;;;;5082496;28;20234;-70
2023/09/26 02:30:49;;;;;;;7.72;4.22;;;16.20;99.90;;;;;;5082820;28;20214;-69
2023/09/26 02:33:41;;;;;;;5.80;4.53;;;16.30;99.90;;;;;;5076037;28;20702;-71
2023/09/26 02:36:30;;;;;;;5.80;4.13;;;16.20;99.90;;;;;;5081970;28;20726;-71
2023/09/26 02:39:19;;;;;;;6.10;4.43;;;16.20;99.90;;;;;;5077146;28;20733;-69
2023/09/26 02:42:08;;;;;;;6.68;4.85;;;16.20;99.90;;;;;;5076112;28;20224;-70
2023/09/26 02:44:57;;;;;;;5.00;4.45;;;16.20;99.90;;;;;;5080368;28;20231;-70
2023/09/26 02:47:46;;;;;;;4.53;4.07;;;16.30;99.90;;;;;;5085526;28;20242;-70
2023/09/26 02:50:37;;;;;;;7.30;4.40;;;16.30;99.90;;;;;;5083466;28;20223;-69
2023/09/26 02:53:26;;;;;;;7.57;4.30;;;16.20;99.90;;;;;;5103633;27;20576;-69
2023/09/26 02:56:15;;;;;;;6.53;4.07;;;16.20;99.90;;;;;;5077205;28;20691;-71
2023/09/26 02:59:04;;;;;;;6.25;3.97;;;16.20;99.90;;;;;;5072758;28;20224;-70
2023/09/26 03:01:53;;;;;;;7.15;4.30;;;16.20;99.90;;;;;;5101807;27;20220;-69
2023/09/26 03:04:42;;;;;;;5.85;4.47;;;16.20;99.90;;;;;;5073388;28;20327;-70
2023/09/26 03:07:32;;;;;;;6.90;4.60;;;16.20;99.90;;;;;;5081052;27;20257;-68
2023/09/26 03:10:22;;;;;;;7.18;4.35;;;16.10;99.90;;;;;;5071358;28;20724;-68
2023/09/26 03:13:11;;;;;;;10.90;5.03;;;16.20;99.90;;;;;;5071245;28;20591;-70
2023/09/26 03:16:01;;;;;;;7.43;4.50;;;16.20;99.90;;;;;;5078925;28;20222;-70
2023/09/26 03:18:55;;;;;;;5.78;4.70;;;16.20;99.90;;;;;;5103248;27;20227;-69
2023/09/26 03:21:44;;;;;;;6.55;4.68;;;16.20;99.90;;;;;;5069584;28;20307;-69
2023/09/26 03:24:34;;;;;;;5.80;4.05;;;16.10;99.90;;;;;;5092531;27;20219;-69
2023/09/26 03:27:24;;;;;;;6.65;4.30;;;16.10;99.90;;;;;;5072422;28;20220;-70
2023/09/26 03:30:16;;;;;;;8.43;4.65;;;16.10;99.90;;;;;;5081670;28;20228;-69
2023/09/26 03:33:06;;;;;;;6.40;4.40;;;16.10;99.90;;;;;;5074055;28;20222;-69
2023/09/26 03:35:57;;;;;;;4.32;3.92;;;16.10;99.90;;;;;;5074625;28;20227;-70
2023/09/26 03:38:46;;;;;;;7.05;4.75;;;16.10;99.90;;;;;;5075145;28;20258;-70
2023/09/26 03:41:37;;;;;;;5.30;4.53;;;16.10;99.90;;;;;;5079810;28;21740;-70
2023/09/26 03:44:26;;;;;;;5.88;4.20;;;16.10;99.90;;;;;;5072992;28;20255;-70
2023/09/26 03:47:14;;;;;;;8.65;4.72;;;16.00;99.90;;;;;;5080916;28;20230;-70
2023/09/26 03:50:03;;;;;;;7.65;4.50;;;16.00;99.90;;;;;;5080187;28;20258;-71
2023/09/26 03:52:52;;;;;;;13.20;4.63;;;16.00;99.90;;;;;;5073858;28;20228;-71
2023/09/26 03:55:41;;;;;;;5.85;4.80;;;16.00;99.90;;;;;;5074410;28;20243;-67
2023/09/26 03:58:35;;;;;;;7.68;4.90;;;15.80;99.90;;;;;;5081602;28;20211;-69
2023/09/26 04:01:24;;;;;;;8.57;4.93;;;15.80;99.90;;;;;;5074434;28;20226;-70
2023/09/26 04:04:13;;;;;;;7.90;4.55;;;15.90;99.90;;;;;;5072696;28;20234;-71
2023/09/26 04:07:03;;;;;;;259.95;15.27;;;15.80;99.90;;;;;;5080438;28;20247;-70
2023/09/26 04:09:53;;;;;;;15.50;5.63;;;15.80;99.90;;;;;;5074698;28;20230;-70
2023/09/26 04:12:42;;;;;;;8.50;4.80;;;15.90;99.90;;;;;;5072154;28;20285;-70
2023/09/26 04:15:32;;;;;;;8.07;4.53;;;15.70;99.90;;;;;;5072138;28;20598;-71
2023/09/26 04:18:22;;;;;;;6.93;5.05;;;15.70;99.90;;;;;;5070341;28;20226;-71
2023/09/26 04:21:11;;;;;;;189.77;12.15;;;15.70;99.90;;;;;;5067248;28;20704;-70
2023/09/26 04:24:04;;;;;;;9.70;4.82;;;15.70;99.90;;;;;;5079868;28;20223;-69
2023/09/26 04:26:53;;;;;;;10.55;4.65;;;15.80;99.90;;;;;;5084592;28;20239;-70
2023/09/26 04:29:42;;;;;;;8.50;4.65;;;15.80;99.90;;;;;;5070332;28;20323;-70
2023/09/26 04:32:35;;;;;;;8.88;4.90;;;15.90;99.90;;;;;;5105819;27;20215;-70
2023/09/26 04:35:24;;;;;;;11.25;4.85;;;15.70;99.90;;;;;;5070988;28;20710;-69
2023/09/26 04:38:14;;;;;;;9.98;5.20;;;15.70;99.90;;;;;;5074893;28;20220;-71
2023/09/26 04:41:04;;;;;;;9.18;5.10;;;15.70;99.90;;;;;;5075131;28;20230;-70
2023/09/26 04:43:52;;;;;;;7.65;5.50;;;15.70;99.90;;;;;;5072588;27;20224;-70
2023/09/26 04:46:42;;;;;;;9.48;4.93;;;15.70;99.90;;;;;;5070522;28;20245;-71
2023/09/26 04:49:34;;;;;;;7.93;4.78;;;15.70;99.90;;;;;;5077154;28;20234;-70
2023/09/26 04:52:24;;;;;;;7.47;5.13;;;15.90;99.90;;;;;;5075060;28;20219;-70
2023/09/26 04:55:14;;;;;;;6.25;4.95;;;16.00;99.90;;;;;;5078951;28;20314;-71
2023/09/26 04:58:03;;;;;;;8.02;5.10;;;16.00;99.90;;;;;;5068480;28;20840;-70
2023/09/26 05:00:52;;;;;;;12.00;5.60;;;16.00;99.90;;;;;;5072498;28;20736;-71
2023/09/26 05:03:41;;;;;;;6.32;4.97;;;16.10;99.90;;;;;;5061948;28;20336;-71
2023/09/26 05:06:34;;;;;;;8.30;5.30;;;16.10;99.90;;;;;;5076922;28;20251;-71
2023/09/26 05:09:23;;;;;;;7.38;4.97;;;16.10;99.90;;;;;;5072726;28;20230;-70
2023/09/26 05:12:13;;;;;;;5.63;4.78;;;16.10;99.90;;;;;;5078083;28;20216;-71
2023/09/26 05:15:02;;;;;;;10.25;5.28;;;16.20;99.90;;;;;;5072463;28;20224;-71
2023/09/26 05:17:52;;;;;;;6.78;4.68;;;16.20;99.90;;;;;;5087509;28;20235;-70
2023/09/26 05:20:42;;;;;;;8.75;5.00;;;16.10;99.90;;;;;;5073144;28;20338;-70
2023/09/26 05:23:33;;;;;;;6.68;4.68;;;16.10;99.90;;;;;;5079217;28;20231;-70
2023/09/26 05:26:22;;;;;;;7.28;4.90;;;16.30;99.90;;;;;;5077138;28;20379;-70
2023/09/26 05:29:10;;;;;;;9.23;5.47;;;16.40;99.90;;;;;;5077106;28;20220;-70
2023/09/26 05:31:59;;;;;;;7.45;5.05;;;16.20;99.90;;;;;;5071700;28;20232;-69
2023/09/26 05:34:48;;;;;;;6.60;5.15;;;16.20;99.90;;;;;;5077536;28;20301;-70
2023/09/26 05:37:38;;;;;;;8.82;5.45;;;16.20;99.90;;;;;;5072604;28;20224;-70
2023/09/26 05:40:29;;;;;;;8.98;5.55;;;16.30;99.90;;;;;;5085200;28;20247;-70
2023/09/26 05:43:18;;;;;;;8.82;5.28;;;16.30;99.90;;;;;;5067870;28;20710;-69
2023/09/26 05:46:07;;;;;;;8.45;5.18;;;16.30;99.90;;;;;;5105460;27;20259;-69
2023/09/26 05:48:56;;;;;;;11.57;5.60;;;16.20;99.90;;;;;;5080146;28;20215;-70
2023/09/26 05:51:45;;;;;;;9.98;6.05;;;16.20;99.90;;;;;;5080837;28;20222;-70
2023/09/26 05:54:34;;;;;;;8.43;5.32;;;16.30;99.90;;;;;;5082251;28;20209;-72
2023/09/26 05:57:26;;;;;;;8.50;5.15;;;16.50;99.90;;;;;;5080564;28;20338;-70
2023/09/26 06:00:16;;;;;;;9.73;5.47;;;16.50;99.90;;;;;;5076187;28;20711;-70
2023/09/26 06:03:05;;;;;;;12.98;5.90;;;16.50;99.90;;;;;;5089286;28;20396;-70
2023/09/26 06:05:55;;;;;;;10.52;5.57;;;16.50;99.90;;;;;;5075791;28;20315;-70
2023/09/26 06:08:43;;;;;;;14.57;6.38;;;16.50;99.90;;;;;;5081081;27;20224;-68
2023/09/26 06:11:36;;;;;;;10.15;5.60;;;16.50;99.90;;;;;;5104405;27;20227;-74
2023/09/26 06:14:27;;;;;;;9.85;5.40;;;16.60;99.90;;;;;;5073673;28;20311;-72
2023/09/26 06:17:16;;;;;;;6.90;5.32;;;16.70;99.90;;;;;;5079747;28;20246;-71
2023/09/26 06:20:09;;;;;;;12.63;6.65;;;16.70;99.90;;;;;;5073855;28;20243;-72
2023/09/26 06:22:59;;;;;;;8.15;5.68;;;16.80;99.90;;;;;;5074503;28;20737;-73
2023/09/26 06:25:58;;;;;;;12.90;5.70;;;16.70;99.90;;;;;;5081502;27;20746;-72
2023/09/26 06:28:47;;;;;;;8.27;5.45;;;16.70;99.90;;;;;;5072880;28;20241;-73
2023/09/26 06:31:40;;;;;;;8.15;5.63;;;16.80;99.90;;;;;;5073831;28;20666;-73
2023/09/26 06:34:31;;;;;;;10.95;6.43;;;16.80;99.90;;;;;;5080636;28;20353;-72
2023/09/26 06:37:20;;;;;;;9.00;5.57;;;16.90;99.90;;;;;;5078565;28;20231;-72
2023/09/26 06:40:11;;;;;;;17.85;6.25;;;16.80;99.90;;;;;;5066762;28;20309;-72
2023/09/26 06:43:02;;;;;;;10.13;6.57;;;16.80;99.90;;;;;;5076819;28;20240;-72
2023/09/26 06:45:51;;;;;;;9.60;6.55;;;16.70;99.90;;;;;;5078343;28;20690;-72
2023/09/26 06:48:42;;;;;;;13.15;6.43;;;16.80;99.90;;;;;;5078238;28;20235;-71
2023/09/26 06:51:33;;;;;;;9.00;6.15;;;16.80;99.90;;;;;;5082939;28;20701;-72
2023/09/26 06:54:22;;;;;;;10.68;6.60;;;16.80;99.90;;;;;;5079172;28;20219;-72
2023/09/26 06:57:15;;;;;;;14.95;6.95;;;16.80;99.90;;;;;;5091779;28;20707;-73
2023/09/26 07:00:11;;;;;;;12.23;7.78;;;16.80;99.90;;;;;;5074234;28;20220;-74
2023/09/26 07:03:00;;;;;;;11.65;7.50;;;17.00;99.90;;;;;;5066410;28;20640;-73
2023/09/26 07:05:51;;;;;;;13.68;7.40;;;17.00;99.90;;;;;;5075217;28;20223;-71
2023/09/26 07:08:41;;;;;;;13.48;7.63;;;17.10;99.90;;;;;;5082039;28;20234;-73
2023/09/26 07:11:30;;;;;;;13.55;7.70;;;17.20;99.90;;;;;;5079039;28;20223;-72
2023/09/26 07:14:20;;;;;;;14.15;7.65;;;17.10;99.90;;;;;;5074344;28;20227;-71
2023/09/26 07:17:10;;;;;;;12.60;7.80;;;17.10;99.90;;;;;;5083215;28;20299;-71
2023/09/26 07:20:00;;;;;;;12.70;7.32;;;17.20;99.90;;;;;;5080299;28;21022;-71
2023/09/26 07:22:51;;;;;;;15.00;7.50;;;17.40;99.90;;;;;;5075001;28;20235;-74
2023/09/26 07:25:40;;;;;;;13.23;7.53;;;17.30;99.90;;;;;;5101377;27;20331;-72
2023/09/26 07:28:29;;;;;;;12.48;7.47;;;17.40;99.90;;;;;;5082651;28;20322;-73
2023/09/26 07:31:20;;;;;;;10.27;7.43;;;17.40;99.90;;;;;;5088241;28;20773;-71
2023/09/26 07:34:09;;;;;;;14.80;8.05;;;17.30;99.90;;;;;;5077238;28;20223;-74
2023/09/26 07:36:58;;;;;;;11.30;7.28;;;17.50;99.90;;;;;;5082538;28;20377;-73
2023/09/26 07:39:51;;;;;;;15.77;7.90;;;17.70;99.90;;;;;;5083296;28;20219;-71
2023/09/26 07:42:40;;;;;;;16.48;8.95;;;17.70;99.90;;;;;;5078540;28;20235;-71
2023/09/26 07:45:30;;;;;;;20.58;9.63;;;17.70;99.90;;;;;;5077419;28;20244;-69
2023/09/26 07:48:19;;;;;;;19.10;9.55;;;17.70;99.90;;;;;;5077675;27;20723;-74
2023/09/26 07:51:10;;;;;;;15.13;10.70;;;17.60;99.90;;;;;;5079916;28;20228;-73
2023/09/26 07:54:04;;;;;;;16.85;10.82;;;17.60;99.90;;;;;;5077866;28;20249;-72
2023/09/26 07:56:54;;;;;;;23.85;12.50;;;17.70;99.90;;;;;;5103147;27;20243;-70
2023/09/26 07:59:44;;;;;;;15.48;11.65;;;17.70;99.90;;;;;;5070513;28;20271;-75
2023/09/26 08:02:34;;;;;;;20.10;12.40;;;17.70;99.90;;;;;;5082104;28;20340;-70
2023/09/26 08:05:23;;;;;;;18.50;12.10;;;17.80;99.90;;;;;;5090848;28;20226;-70
2023/09/26 08:08:12;;;;;;;16.90;11.45;;;17.90;99.90;;;;;;5083110;28;20223;-73
2023/09/26 08:11:07;;;;;;;20.25;12.75;;;18.10;99.90;;;;;;5106635;27;20316;-71
2023/09/26 08:13:57;;;;;;;17.77;11.90;;;18.10;99.90;;;;;;5102715;27;20220;-72
2023/09/26 08:16:47;;;;;;;18.17;11.88;;;18.30;99.90;;;;;;5070693;28;20220;-75
2023/09/26 08:19:36;;;;;;;18.45;12.25;;;18.40;99.90;;;;;;5074892;28;20238;-70
2023/09/26 08:22:26;;;;;;;17.15;11.48;;;18.50;99.90;;;;;;5084181;28;20269;-73
2023/09/26 08:25:16;;;;;;;17.25;12.07;;;18.50;99.90;;;;;;5079508;28;20291;-68
2023/09/26 08:28:06;;;;;;;18.35;11.65;;;18.50;99.90;;;;;;5103143;27;20227;-72
2023/09/26 08:30:57;;;;;;;21.15;11.77;;;18.50;99.90;;;;;;5080396;28;20216;-72
2023/09/26 08:33:49;;;;;;;17.25;12.30;;;18.60;99.90;;;;;;5080103;28;20230;-72
2023/09/26 08:36:39;;;;;;;19.67;12.10;;;18.60;99.90;;;;;;5099228;27;20232;-73
2023/09/26 08:39:29;;;;;;;19.05;12.88;;;18.70;99.90;;;;;;5066287;28;20531;-71
2023/09/26 08:42:26;;;;;;;17.77;13.60;;;18.50;99.90;;;;;;5067050;27;20219;-72
2023/09/26 08:45:16;;;;;;;23.10;13.00;;;18.50;99.90;;;;;;5078558;28;20223;-70
2023/09/26 08:48:08;;;;;;;23.00;13.43;;;18.70;99.90;;;;;;5072703;28;20639;-72
2023/09/26 08:50:57;;;;;;;20.90;12.93;;;18.80;99.90;;;;;;5076338;28;20223;-74
2023/09/26 08:53:46;;;;;;;18.52;13.80;;;18.90;99.90;;;;;;5075376;28;20219;-71
2023/09/26 08:56:36;;;;;;;18.25;14.20;;;18.90;99.90;;;;;;5079172;28;20302;-71
2023/09/26 08:59:34;;;;;;;21.33;14.52;;;19.00;99.90;;;;;;5103944;27;20497;-72
2023/09/26 09:02:23;;;;;;;22.63;15.93;;;19.00;99.90;;;;;;5077921;27;20597;-73
2023/09/26 09:05:19;;;;;;;22.88;15.07;;;18.80;99.90;;;;;;5079252;28;20724;-70
2023/09/26 09:08:09;;;;;;;21.45;15.48;;;19.00;99.90;;;;;;5084849;27;20709;-74
2023/09/26 09:10:58;;;;;;;22.38;14.10;;;18.80;99.90;;;;;;5076162;28;20231;-73
2023/09/26 09:13:50;;;;;;;21.42;15.57;;;18.90;99.90;;;;;;5076419;28;20219;-74
2023/09/26 09:16:40;;;;;;;23.20;16.20;;;18.80;99.90;;;;;;5073637;28;20250;-74
2023/09/26 09:19:45;;;;;;;21.25;15.95;;;19.10;99.90;;;;;;5072185;28;20235;-75
2023/09/26 09:22:37;;;;;;;24.40;16.67;;;19.20;99.90;;;;;;5076388;28;20227;-76
2023/09/26 09:25:31;;;;;;;24.77;17.77;;;19.20;99.90;;;;;;5077639;28;20219;-73
2023/09/26 09:28:21;;;;;;;22.33;17.15;;;19.20;99.90;;;;;;5072703;28;20883;-71
2023/09/26 09:31:14;;;;;;;28.70;17.23;;;19.30;99.90;;;;;;5077280;28;20282;-72
2023/09/26 09:34:05;;;;;;;23.85;17.08;;;19.50;99.90;;;;;;5073440;28;20230;-71
2023/09/26 09:36:56;;;;;;;24.65;15.98;;;19.60;99.90;;;;;;5098700;27;20242;-71
2023/09/26 09:39:48;;;;;;;19.77;16.20;;;19.50;99.90;;;;;;5071832;28;20227;-72
2023/09/26 09:42:38;;;;;;;25.40;16.08;;;19.60;99.90;;;;;;5101226;27;20228;-72
2023/09/26 09:45:30;;;;;;;23.90;16.38;;;19.80;99.90;;;;;;5071752;28;20243;-73
2023/09/26 09:48:20;;;;;;;24.55;16.65;;;19.90;99.90;;;;;;5099856;28;20227;-73
2023/09/26 09:51:12;;;;;;;22.77;16.95;;;19.80;99.90;;;;;;5080929;28;20241;-71
2023/09/26 09:54:01;;;;;;;22.45;16.25;;;19.70;99.90;;;;;;5072160;28;20824;-72
2023/09/26 09:56:54;;;;;;;21.58;15.95;;;19.60;99.90;;;;;;5070789;28;20703;-73
2023/09/26 09:59:45;;;;;;;21.35;16.38;;;19.70;99.90;;;;;;5070655;27;20289;-74
2023/09/26 10:02:37;;;;;;;20.55;16.90;;;19.70;99.90;;;;;;5094282;27;20219;-71
2023/09/26 10:05:30;;;;;;;26.98;17.52;;;19.80;99.90;;;;;;5076566;28;20216;-71
2023/09/26 10:08:21;;;;;;;24.13;17.70;;;19.90;99.90;;;;;;5070118;28;20714;-73
2023/09/26 10:11:11;;;;;;;24.00;17.83;;;20.00;99.90;;;;;;5093021;27;20518;-72
2023/09/26 10:14:05;;;;;;;23.17;17.88;;;20.10;99.90;;;;;;5060533;28;20231;-72
2023/09/26 10:16:57;;;;;;;25.63;17.83;;;20.20;99.90;;;;;;5080719;27;20224;-71
2023/09/26 10:19:46;;;;;;;23.90;17.50;;;19.90;99.90;;;;;;5074649;28;20410;-73
2023/09/26 10:23:10;;;;;;;22.73;18.13;;;19.90;99.90;;;;;;5079831;28;20639;-70
2023/09/26 10:26:03;;;;;;;26.92;18.88;;;20.10;99.90;;;;;;5089858;27;20227;-72
2023/09/26 10:28:52;;;;;;;27.08;19.92;;;20.30;99.90;;;;;;5076985;28;21102;-73
2023/09/26 10:31:53;;;;;;;26.27;19.52;;;20.10;99.90;;;;;;5090260;27;20643;-71
2023/09/26 10:34:46;;;;;;;24.17;18.02;;;20.20;99.90;;;;;;5076775;28;20326;-71
2023/09/26 10:38:02;;;;;;;23.88;18.58;;;20.40;99.90;;;;;;5073892;28;20548;-74
2023/09/26 10:40:51;;;;;;;23.00;17.27;;;20.70;99.90;;;;;;5073447;28;20227;-74
2023/09/26 10:43:41;;;;;;;24.02;17.77;;;20.90;99.90;;;;;;5068404;28;20220;-71
2023/09/26 10:46:36;;;;;;;24.60;18.05;;;21.00;99.90;;;;;;5077063;28;20220;-69
2023/09/26 10:49:26;;;;;;;22.88;17.15;;;21.00;99.90;;;;;;5071867;28;20228;-68
2023/09/26 10:52:15;;;;;;;24.08;17.52;;;21.20;99.90;;;;;;5083749;27;20635;-68
2023/09/26 10:55:06;;;;;;;21.50;17.15;;;21.30;99.90;;;;;;5075756;28;20239;-69
2023/09/26 10:57:56;;;;;;;24.20;17.38;;;21.10;99.90;;;;;;5075309;28;20717;-68
2023/09/26 11:00:50;;;;;;;23.75;17.38;;;20.80;99.90;;;;;;5086568;27;20231;-67
2023/09/26 11:03:40;;;;;;;25.60;17.65;;;20.70;99.90;;;;;;5076362;28;20227;-68
2023/09/26 11:06:31;;;;;;;22.13;17.35;;;20.40;99.90;;;;;;5102636;27;20398;-68
2023/09/26 11:09:21;;;;;;;24.20;18.23;;;20.40;99.90;;;;;;5074186;28;20310;-69
2023/09/26 11:12:10;;;;;;;24.23;18.23;;;20.40;99.90;;;;;;5072461;28;20219;-69
2023/09/26 11:15:00;;;;;;;26.15;18.77;;;20.50;99.90;;;;;;5076467;28;20242;-66
2023/09/26 11:17:50;;;;;;;23.20;17.73;;;20.40;99.90;;;;;;5079456;28;20252;-69
2023/09/26 11:20:41;;;;;;;23.38;17.10;;;20.30;99.90;;;;;;5100549;27;20232;-68
2023/09/26 11:23:50;;;;;;;21.42;17.67;;;20.40;99.90;;;;;;5072586;28;20415;-68
2023/09/26 11:26:39;;;;;;;24.95;17.55;;;20.40;99.90;;;;;;5074337;28;20216;-68
2023/09/26 11:29:28;;;;;;;21.98;16.38;;;20.50;99.90;;;;;;5073329;28;20708;-67
2023/09/26 11:32:18;;;;;;;22.73;17.05;;;20.60;99.90;;;;;;5077656;28;20219;-69
2023/09/26 11:35:08;;;;;;;22.20;17.17;;;20.50;99.90;;;;;;5068462;28;20238;-67
2023/09/26 11:37:58;;;;;;;23.02;16.67;;;20.50;99.90;;;;;;5086209;27;20244;-66
2023/09/26 11:40:49;;;;;;;23.52;17.92;;;20.50;99.90;;;;;;5077990;28;20694;-68
2023/09/26 11:43:40;;;;;;;22.30;16.55;;;20.60;99.90;;;;;;5074105;28;20815;-68
2023/09/26 11:46:29;;;;;;;19.83;16.70;;;20.60;99.90;;;;;;5076695;28;20223;-68
2023/09/26 11:49:19;;;;;;;21.55;16.67;;;20.60;99.90;;;;;;5074470;28;20351;-68
2023/09/26 11:52:08;;;;;;;19.00;16.00;;;20.60;99.90;;;;;;5085119;28;20315;-68
2023/09/26 11:54:57;;;;;;;18.55;15.52;;;20.60;99.90;;;;;;5072438;28;20223;-67
2023/09/26 11:57:51;;;;;;;22.48;16.10;;;20.70;99.90;;;;;;5075262;28;20967;-68
2023/09/26 12:00:40;;;;;;;22.05;16.00;;;20.70;99.90;;;;;;5066794;28;20243;-67
2023/09/26 12:03:29;;;;;;;17.88;15.00;;;20.70;99.90;;;;;;5078138;28;20276;-66
2023/09/26 12:06:18;;;;;;;16.33;14.52;;;20.60;99.90;;;;;;5072344;28;20231;-68
2023/09/26 12:09:10;;;;;;;21.20;14.77;;;20.70;99.90;;;;;;5070572;28;20300;-67
2023/09/26 12:12:00;;;;;;;20.73;16.08;;;20.70;99.90;;;;;;5074284;28;20365;-68
2023/09/26 12:15:13;;;;;;;19.50;15.77;;;20.70;99.90;;;;;;5069251;28;20722;-68
2023/09/26 12:18:02;;;;;;;18.50;15.52;;;20.70;99.90;;;;;;5075923;27;20295;-67
2023/09/26 12:20:55;;;;;;;27.15;16.73;;;20.70;99.90;;;;;;5075444;28;20215;-68
2023/09/26 12:23:45;;;;;;;21.80;15.65;;;20.80;99.90;;;;;;5070856;28;20223;-70
2023/09/26 12:26:35;;;;;;;19.95;15.43;;;20.90;99.90;;;;;;5071766;28;20220;-69
2023/09/26 12:29:25;;;;;;;20.13;15.60;;;20.90;99.90;;;;;;5074510;28;20227;-69
2023/09/26 12:32:15;;;;;;;18.17;14.55;;;20.90;99.90;;;;;;5073250;28;20601;-68
2023/09/26 12:35:05;;;;;;;20.08;15.45;;;20.90;99.90;;;;;;5076621;28;20224;-69
2023/09/26 12:37:56;;;;;;;18.73;14.77;;;20.90;99.90;;;;;;5067177;28;20235;-68
2023/09/26 12:40:46;;;;;;;21.08;14.48;;;20.90;99.90;;;;;;5067931;28;20688;-68
2023/09/26 12:43:35;;;;;;;19.58;15.13;;;20.90;99.90;;;;;;5075851;28;20228;-70
2023/09/26 12:46:24;;;;;;;17.58;13.95;;;20.90;99.90;;;;;;5084416;28;20224;-69
2023/09/26 12:49:15;;;;;;;17.92;13.68;;;21.00;99.90;;;;;;5074408;28;20745;-68
2023/09/26 12:52:04;;;;;;;18.40;13.82;;;21.00;99.90;;;;;;5081963;28;20226;-69
2023/09/26 12:54:53;;;;;;;16.08;13.85;;;21.00;99.90;;;;;;5067443;28;20226;-70
2023/09/26 12:57:42;;;;;;;19.40;13.65;;;21.00;99.90;;;;;;5077595;28;20250;-69
2023/09/26 13:00:34;;;;;;;18.88;13.32;;;21.00;99.90;;;;;;5075429;28;20227;-70
2023/09/26 13:03:23;;;;;;;18.83;14.30;;;21.00;99.90;;;;;;5068647;28;20343;-70
2023/09/26 13:06:14;;;;;;;18.75;13.80;;;21.00;99.90;;;;;;5074323;28;20237;-71
2023/09/26 13:09:04;;;;;;;16.35;13.15;;;21.00;99.90;;;;;;5066249;28;20351;-68
2023/09/26 13:11:53;;;;;;;17.80;13.73;;;21.00;99.90;;;;;;5072714;28;20262;-71
2023/09/26 13:14:42;;;;;;;20.45;13.70;;;21.10;99.90;;;;;;5069400;28;20232;-67
2023/09/26 13:17:31;;;;;;;16.23;13.00;;;21.10;99.90;;;;;;5071388;28;20710;-68
2023/09/26 13:20:20;;;;;;;19.20;13.40;;;21.10;99.90;;;;;;5074899;28;20231;-70
2023/09/26 13:23:10;;;;;;;17.40;12.63;;;21.10;99.90;;;;;;5072978;28;20216;-68
2023/09/26 13:25:59;;;;;;;19.23;12.50;;;21.20;99.90;;;;;;5075977;28;20230;-69
2023/09/26 13:28:48;;;;;;;16.75;12.98;;;21.10;99.90;;;;;;5078770;28;20294;-69
2023/09/26 13:31:41;;;;;;;17.30;13.65;;;21.10;99.90;;;;;;5088044;28;20234;-76
2023/09/26 13:34:43;;;;;;;24.35;13.52;;;21.20;99.90;;;;;;5008477;28;20629;-71
2023/09/26 13:37:32;;;;;;;16.52;13.15;;;21.30;99.90;;;;;;5001649;28;20261;-70
2023/09/26 13:40:21;;;;;;;17.23;13.25;;;21.20;99.90;;;;;;4989456;28;20229;-70
2023/09/26 13:43:10;;;;;;;20.88;12.60;;;21.30;99.90;;;;;;5004819;28;20246;-70
2023/09/26 13:45:59;;;;;;;16.13;13.45;;;21.20;99.90;;;;;;5002926;28;20345;-70
2023/09/26 13:48:48;;;;;;;21.10;13.98;;;21.30;99.90;;;;;;4994837;28;20276;-71
2023/09/26 13:51:38;;;;;;;17.23;13.57;;;21.30;99.90;;;;;;4986390;28;21086;-70
2023/09/26 13:54:30;;;;;;;16.20;12.63;;;21.40;99.90;;;;;;5007971;28;20904;-69
2023/09/26 13:57:19;;;;;;;16.63;12.85;;;21.30;99.90;;;;;;4996542;28;20270;-70
2023/09/26 14:00:09;;;;;;;17.45;13.07;;;21.40;99.90;;;;;;4994933;28;20341;-70
2023/09/26 14:03:00;;;;;;;16.35;13.70;;;21.40;99.90;;;;;;4986064;28;20665;-70
2023/09/26 14:05:49;;;;;;;21.23;13.90;;;21.40;99.90;;;;;;5007014;28;20312;-70
2023/09/26 14:08:41;;;;;;;24.95;13.82;;;21.40;99.90;;;;;;4993738;28;20252;-72
2023/09/26 14:11:29;;;;;;;17.35;13.45;;;21.40;99.90;;;;;;4988412;28;20226;-70
2023/09/26 14:14:18;;;;;;;16.52;13.02;;;21.50;99.90;;;;;;5004635;28;20305;-70
2023/09/26 14:17:07;;;;;;;19.08;13.20;;;21.50;99.90;;;;;;4993107;28;20226;-71
2023/09/26 14:19:57;;;;;;;18.70;12.80;;;21.50;99.90;;;;;;4994227;28;20234;-70
2023/09/26 14:22:46;;;;;;;16.20;13.43;;;21.50;99.90;;;;;;4993760;28;20226;-70
2023/09/26 14:25:37;;;;;;;17.48;13.40;;;21.50;99.90;;;;;;4993766;28;20354;-70
2023/09/26 14:28:26;;;;;;;20.75;13.95;;;21.40;99.90;;;;;;5006794;28;20242;-70
2023/09/26 14:31:19;;;;;;;16.55;14.05;;;21.40;99.90;;;;;;5004719;28;20328;-70
2023/09/26 14:34:08;;;;;;;17.45;13.90;;;21.50;99.90;;;;;;5015220;28;20233;-71